createdAt,value
2022-08-04T00:00:45.866Z,99987.19
2022-08-04T00:03:17.053Z,99992.03
2022-08-04T00:05:55.186Z,99999.69
2022-08-04T00:08:42.845Z,99991.31
2022-08-04T00:11:15.243Z,99992.97
2022-08-04T00:14:08.119Z,99990.25
2022-08-04T00:16:38.561Z,99988.88
2022-08-04T00:19:18.507Z,99993.37
2022-08-04T00:21:56.692Z,99991.16
2022-08-04T00:24:25.438Z,99985.47
2022-08-04T00:26:56.144Z,99991.22
2022-08-04T00:29:25.591Z,99988.28
2022-08-04T00:31:57.383Z,99991.22
2022-08-04T00:34:28.622Z,99993.25
2022-08-04T00:36:58.362Z,99993.41
2022-08-04T00:39:27.249Z,99996.75
2022-08-04T00:42:23.970Z,99997.59
2022-08-04T00:45:13.756Z,100002.56
2022-08-04T00:48:04.469Z,100011.94
2022-08-04T00:50:33.795Z,100007.38
2022-08-04T00:53:09.824Z,100004.66
2022-08-04T00:56:11.273Z,100004.06
2022-08-04T00:59:03.906Z,100019.81
2022-08-04T01:01:46.436Z,100012.66
2022-08-04T01:04:22.442Z,100013.28
2022-08-04T01:07:31.481Z,100021.22
2022-08-04T01:10:31.458Z,100010.47
2022-08-04T01:13:18.214Z,100016.28
2022-08-04T01:16:11.354Z,100006.97
2022-08-04T01:18:51.581Z,100014.94
2022-08-04T01:21:47.909Z,100014.28
2022-08-04T01:24:30.894Z,100006.97
2022-08-04T01:27:26.998Z,100015.84
2022-08-04T01:29:59.891Z,100012.91
2022-08-04T01:33:03.905Z,100012.69
2022-08-04T01:35:52.985Z,100015.25
2022-08-04T01:38:28.827Z,100018.22
2022-08-04T01:41:04.154Z,100015.94
2022-08-04T01:43:34.140Z,100013.56
2022-08-04T01:46:04.246Z,100007.53
2022-08-04T01:48:32.332Z,100009.53
2022-08-04T01:51:06.709Z,100017.19
2022-08-04T01:53:37.524Z,100014.91
2022-08-04T01:56:08.219Z,100009.47
2022-08-04T01:58:38.026Z,100013.69
2022-08-04T02:01:11.349Z,100011.66
2022-08-04T02:04:18.812Z,100001.56
2022-08-04T02:06:52.885Z,100013.94
2022-08-04T02:09:32.202Z,100012.00
2022-08-04T02:12:24.885Z,100008.53
2022-08-04T02:15:19.631Z,100004.28
2022-08-04T02:22:17.782Z,100004.16
2022-08-04T02:24:50.171Z,100002.84
2022-08-04T02:27:23.705Z,100005.12
2022-08-04T02:30:05.211Z,100002.47
2022-08-04T02:32:39.771Z,99999.94
2022-08-04T02:35:15.112Z,100000.41
2022-08-04T02:37:48.299Z,99998.16
2022-08-04T02:40:20.921Z,99991.63
2022-08-04T02:43:04.420Z,99993.87
2022-08-04T02:45:37.823Z,99996.62
2022-08-04T02:48:25.230Z,99993.91
2022-08-04T02:50:56.388Z,100000.16
2022-08-04T02:53:34.807Z,99997.72
2022-08-04T02:56:03.909Z,100000.72
2022-08-04T02:58:35.410Z,99992.19
2022-08-04T03:01:04.510Z,99994.97
2022-08-04T03:03:41.455Z,99991.75
2022-08-04T03:06:10.939Z,99987.34
2022-08-04T03:08:57.038Z,99987.56
2022-08-04T03:11:24.956Z,99991.94
2022-08-04T03:14:16.924Z,100005.19
2022-08-04T03:17:03.805Z,100003.19
2022-08-04T03:20:07.719Z,100004.03
2022-08-04T03:23:12.009Z,99999.00
2022-08-04T03:26:11.890Z,99991.47
2022-08-04T03:28:45.857Z,100001.66
2022-08-04T03:31:54.192Z,99995.47
2022-08-04T03:34:34.833Z,100005.00
2022-08-04T03:37:12.371Z,100002.63
2022-08-04T03:40:10.708Z,99999.03
2022-08-04T03:43:57.298Z,100008.53
2022-08-04T03:46:23.417Z,100011.94
2022-08-04T03:49:25.692Z,100009.16
2022-08-04T03:52:51.739Z,100005.25
2022-08-04T03:55:41.032Z,100004.72
2022-08-04T03:58:41.513Z,100014.22
2022-08-04T04:01:14.181Z,100013.03
2022-08-04T04:04:08.810Z,100021.91
2022-08-04T04:07:07.735Z,100016.78
2022-08-04T04:10:06.433Z,100017.72
2022-08-04T04:12:53.862Z,100023.59
2022-08-04T04:15:37.999Z,100020.53
2022-08-04T04:18:16.578Z,100015.44
2022-08-04T04:20:59.230Z,100014.06
2022-08-04T04:23:27.225Z,100014.00
2022-08-04T04:26:26.862Z,100012.84
2022-08-04T04:29:28.878Z,100024.88
2022-08-04T04:32:05.101Z,100018.22
2022-08-04T04:34:51.076Z,100013.53
2022-08-04T04:37:48.761Z,100014.41
2022-08-04T04:40:36.097Z,100019.38
2022-08-04T04:43:50.340Z,100017.50
2022-08-04T04:46:40.203Z,100022.19
2022-08-04T04:49:30.778Z,100020.84
2022-08-04T04:52:06.827Z,100022.06
2022-08-04T04:55:10.631Z,100024.00
2022-08-04T04:57:53.386Z,100029.81
2022-08-04T05:00:27.089Z,100030.16
2022-08-04T05:03:14.972Z,100026.38
2022-08-04T05:05:53.643Z,100021.28
2022-08-04T05:08:41.119Z,100032.47
2022-08-04T05:11:49.106Z,100029.75
2022-08-04T05:14:40.031Z,100037.00
2022-08-04T05:17:26.654Z,100025.09
2022-08-04T05:20:04.597Z,100031.69
2022-08-04T05:22:40.233Z,100034.03
2022-08-04T05:25:18.619Z,100029.94
2022-08-04T05:28:09.953Z,100037.16
2022-08-04T05:30:48.652Z,100039.50
2022-08-04T05:33:23.151Z,100042.78
2022-08-04T05:36:20.868Z,100043.53
2022-08-04T05:38:52.068Z,100042.09
2022-08-04T05:41:23.085Z,100035.25
2022-08-04T05:44:14.074Z,100034.72
2022-08-04T05:46:54.240Z,100036.47
2022-08-04T05:49:28.194Z,100047.31
2022-08-04T05:52:01.128Z,100041.91
2022-08-04T05:54:33.666Z,100042.88
2022-08-04T05:57:06.658Z,100047.28
2022-08-04T05:59:38.028Z,100045.72
2022-08-04T06:02:09.118Z,100056.16
2022-08-04T06:04:43.578Z,100054.16
2022-08-04T06:07:14.301Z,100054.16
2022-08-04T06:09:46.112Z,100043.31
2022-08-04T06:12:38.960Z,100050.19
2022-08-04T06:15:09.288Z,100047.81
2022-08-04T06:18:32.894Z,100037.28
2022-08-04T06:20:34.666Z,100045.44
2022-08-04T06:23:08.203Z,100049.16
2022-08-04T06:25:51.263Z,100053.56
2022-08-04T06:28:28.041Z,100052.53
2022-08-04T06:32:28.333Z,100049.50
2022-08-04T06:33:55.423Z,100043.91
2022-08-04T06:36:24.889Z,100046.12
2022-08-04T06:38:58.328Z,100041.72
2022-08-04T06:41:29.577Z,100047.09
2022-08-04T06:44:05.001Z,100052.91
2022-08-04T06:46:37.752Z,100046.22
2022-08-04T06:49:08.384Z,100042.31
2022-08-04T06:51:46.705Z,100043.97
2022-08-04T06:54:16.686Z,100045.25
2022-08-04T06:56:46.186Z,100042.22
2022-08-04T06:59:16.297Z,100040.59
2022-08-04T07:04:26.192Z,100045.25
2022-08-04T07:07:04.967Z,100048.16
2022-08-04T07:12:13.700Z,100036.22
2022-08-04T07:14:51.494Z,100052.50
2022-08-04T07:17:21.583Z,100048.38
2022-08-04T07:19:50.516Z,100042.41
2022-08-04T07:22:25.470Z,100038.16
2022-08-04T07:24:57.317Z,100039.44
2022-08-04T07:27:47.861Z,100032.81
2022-08-04T07:30:24.639Z,100041.56
2022-08-04T07:32:55.155Z,100034.78
2022-08-04T07:36:05.399Z,100032.78
2022-08-04T07:38:13.936Z,100033.06
2022-08-04T07:40:47.035Z,100030.47
2022-08-04T07:43:17.959Z,100028.88
2022-08-04T07:45:46.468Z,100025.12
2022-08-04T07:48:15.768Z,100026.34
2022-08-04T07:50:48.997Z,100024.56
2022-08-04T07:53:54.600Z,100014.56
2022-08-04T07:56:07.884Z,100012.06
2022-08-04T07:58:35.979Z,100020.22
2022-08-04T08:01:06.228Z,100010.59
2022-08-04T08:03:39.076Z,100014.94
2022-08-04T08:06:18.164Z,100012.88
2022-08-04T08:09:14.569Z,100012.31
2022-08-04T08:12:37.643Z,100013.50
2022-08-04T08:14:37.309Z,100009.97
2022-08-04T08:17:09.282Z,100005.69
2022-08-04T08:19:41.087Z,100006.75
2022-08-04T08:22:12.317Z,100010.69
2022-08-04T08:24:42.419Z,100012.47
2022-08-04T08:27:11.072Z,100013.44
2022-08-04T08:29:40.043Z,100010.13
2022-08-04T08:32:10.803Z,100007.66
2022-08-04T08:34:46.725Z,100009.94
2022-08-04T08:37:17.958Z,100010.84
2022-08-04T08:39:58.437Z,100011.84
2022-08-04T08:42:47.961Z,100012.00
2022-08-04T08:45:23.645Z,100011.44
2022-08-04T08:48:17.062Z,100014.00
2022-08-04T08:51:13.878Z,100009.22
2022-08-04T08:53:54.195Z,100011.41
2022-08-04T08:56:53.157Z,100010.44
2022-08-04T08:59:54.916Z,100008.88
2022-08-04T09:03:04.234Z,100009.72
2022-08-04T09:06:17.402Z,100004.66
2022-08-04T09:09:01.707Z,99998.34
2022-08-04T09:11:38.633Z,100008.47
2022-08-04T09:14:12.070Z,100004.03
2022-08-04T09:16:48.098Z,100002.34
2022-08-04T09:19:39.098Z,99994.13
2022-08-04T09:22:28.544Z,99996.06
2022-08-04T09:25:30.988Z,99995.03
2022-08-04T09:28:37.205Z,99999.22
2022-08-04T09:31:53.020Z,100003.00
2022-08-04T09:35:03.722Z,99999.56
2022-08-04T09:37:55.976Z,99996.97
2022-08-04T09:40:53.212Z,100000.94
2022-08-04T09:44:51.398Z,99994.94
2022-08-04T09:47:12.181Z,99988.22
2022-08-04T09:49:49.177Z,99992.28
2022-08-04T09:52:28.169Z,99984.28
2022-08-04T09:55:09.985Z,99972.41
2022-08-04T09:57:56.529Z,99974.06
2022-08-04T10:00:42.006Z,99968.19
2022-08-04T10:03:19.999Z,99968.19
2022-08-04T10:06:20.326Z,99962.75
2022-08-04T10:12:19.084Z,99962.03
2022-08-04T10:14:55.128Z,99960.59
2022-08-04T10:17:43.525Z,99958.06
2022-08-04T10:20:36.581Z,99952.88
2022-08-04T10:23:18.339Z,99955.41
2022-08-04T10:26:08.469Z,99950.31
2022-08-04T10:28:46.001Z,99946.44
2022-08-04T10:31:27.199Z,99952.03
2022-08-04T10:34:03.986Z,99948.53
2022-08-04T10:36:41.807Z,99945.50
2022-08-04T10:39:43.233Z,99941.53
2022-08-04T10:42:15.555Z,99938.72
2022-08-04T10:48:03.309Z,99928.53
2022-08-04T10:50:40.902Z,99931.22
2022-08-04T10:53:19.982Z,99935.09
2022-08-04T10:56:07.231Z,99924.37
2022-08-04T10:58:48.027Z,99923.78
2022-08-04T11:02:00.794Z,99922.13
2022-08-04T11:04:27.193Z,99914.00
2022-08-04T11:07:02.935Z,99912.53
2022-08-04T11:09:32.970Z,99915.09
2022-08-04T11:12:21.991Z,99913.25
2022-08-04T11:18:24.313Z,99920.03
2022-08-04T11:21:03.205Z,99914.78
2022-08-04T11:23:42.207Z,99909.47
2022-08-04T11:26:45.682Z,99908.78
2022-08-04T11:29:27.094Z,99907.81
2022-08-04T11:32:02.060Z,99901.81
2022-08-04T11:34:33.410Z,99901.09
2022-08-04T11:37:14.371Z,99907.66
2022-08-04T11:40:08.370Z,99900.97
2022-08-04T11:42:40.114Z,99893.84
2022-08-04T11:45:17.464Z,99890.66
2022-08-04T11:48:08.075Z,99896.28
2022-08-04T11:50:44.467Z,99898.16
2022-08-04T11:53:20.186Z,99891.78
2022-08-04T11:58:29.248Z,99864.00
2022-08-04T12:01:27.770Z,99864.66
2022-08-04T12:07:30.414Z,99861.25
2022-08-04T12:10:47.263Z,99856.97
2022-08-04T12:13:37.043Z,99852.06
2022-08-04T12:16:22.240Z,99847.87
2022-08-04T12:19:10.023Z,99860.78
2022-08-04T12:21:55.976Z,99847.38
2022-08-04T12:24:40.015Z,99834.16
2022-08-04T12:27:32.165Z,99849.34
2022-08-04T12:30:59.535Z,99844.34
2022-08-04T12:33:02.017Z,99854.34
2022-08-04T12:36:11.148Z,99846.78
2022-08-04T12:41:27.023Z,99840.97
2022-08-04T12:43:56.117Z,99836.62
2022-08-04T12:46:28.204Z,99835.09
2022-08-04T12:49:02.783Z,99833.31
2022-08-04T12:52:07.118Z,99828.91
2022-08-04T12:54:34.405Z,99824.66
2022-08-04T12:59:44.815Z,99831.84
2022-08-04T13:02:19.166Z,99832.28
2022-08-04T13:04:51.378Z,99823.69
2022-08-04T13:07:24.497Z,99822.97
2022-08-04T13:09:54.659Z,99821.91
2022-08-04T13:12:31.975Z,99815.53
2022-08-04T13:15:18.030Z,99820.09
2022-08-04T13:18:02.099Z,99812.94
2022-08-04T13:20:36.884Z,99812.97
2022-08-04T13:23:12.896Z,99813.38
2022-08-04T13:26:44.450Z,99800.97
2022-08-04T13:28:34.730Z,99804.78
2022-08-04T13:31:08.333Z,99799.50
2022-08-04T13:33:44.103Z,99805.09
2022-08-04T13:36:20.277Z,99803.13
2022-08-04T13:38:54.640Z,99804.63
2022-08-04T13:41:27.654Z,99789.09
2022-08-04T13:44:18.507Z,99797.09
2022-08-04T13:46:51.337Z,99787.78
2022-08-04T13:49:42.736Z,99791.00
2022-08-04T13:52:14.056Z,99780.34
2022-08-04T13:57:35.195Z,99776.66
2022-08-04T14:00:12.101Z,99773.66
2022-08-04T14:02:47.119Z,99773.53
2022-08-04T14:05:27.455Z,99772.00
2022-08-04T14:08:05.158Z,99764.09
2022-08-04T14:10:37.151Z,99768.28
2022-08-04T14:13:06.682Z,99763.41
2022-08-04T14:15:54.888Z,99765.28
2022-08-04T14:18:35.131Z,99757.03
2022-08-04T14:21:10.074Z,99756.44
2022-08-04T14:23:48.041Z,99759.41
2022-08-04T14:26:32.391Z,99754.63
2022-08-04T14:32:03.181Z,99765.66
2022-08-04T14:37:18.174Z,99756.16
2022-08-04T14:40:18.171Z,99752.94
2022-08-04T14:42:53.973Z,99754.28
2022-08-04T14:45:35.504Z,99764.22
2022-08-04T14:48:11.846Z,99746.81
2022-08-04T14:50:50.720Z,99744.66
2022-08-04T14:53:29.475Z,99756.53
2022-08-04T14:56:01.235Z,99750.78
2022-08-04T14:58:39.288Z,99748.41
2022-08-04T15:01:12.922Z,99755.19
2022-08-04T15:03:47.986Z,99758.09
2022-08-04T15:06:27.402Z,99753.94
2022-08-04T15:08:58.821Z,99757.50
2022-08-04T15:11:34.048Z,99754.00
2022-08-04T15:14:09.066Z,99742.56
2022-08-04T15:16:58.665Z,99743.09
2022-08-04T15:19:28.311Z,99744.75
2022-08-04T15:21:58.121Z,99742.63
2022-08-04T15:24:35.076Z,99746.25
2022-08-04T15:27:04.201Z,99746.78
2022-08-04T15:29:59.696Z,99742.69
2022-08-04T15:32:33.187Z,99741.31
2022-08-04T15:35:20.881Z,99734.94
2022-08-04T15:37:58.357Z,99743.16
2022-08-04T15:40:52.147Z,99742.25
2022-08-04T15:43:45.229Z,99745.22
2022-08-04T15:46:44.079Z,99734.31
2022-08-04T15:49:22.449Z,99738.97
2022-08-04T15:52:26.289Z,99733.09
2022-08-04T15:55:39.115Z,99737.75
2022-08-04T15:58:15.170Z,99731.91
2022-08-04T16:00:55.094Z,99733.72
2022-08-04T16:04:00.366Z,99721.50
2022-08-04T16:06:30.779Z,99725.47
2022-08-04T16:09:05.520Z,99721.97
2022-08-04T16:11:38.130Z,99720.53
2022-08-04T16:14:07.713Z,99724.47
2022-08-04T16:16:37.158Z,99719.09
2022-08-04T16:19:19.069Z,99715.09
2022-08-04T16:21:51.407Z,99724.84
2022-08-04T16:24:26.576Z,99722.25
2022-08-04T16:27:02.114Z,99724.06
2022-08-04T16:29:40.540Z,99713.59
2022-08-04T16:32:14.446Z,99714.16
2022-08-04T16:35:00.340Z,99713.31
2022-08-04T16:37:38.551Z,99717.03
2022-08-04T16:40:37.732Z,99717.13
2022-08-04T16:43:22.153Z,99713.34
2022-08-04T16:46:02.131Z,99704.28
2022-08-04T16:48:30.747Z,99710.34
2022-08-04T16:51:15.678Z,99710.87
2022-08-04T16:54:04.999Z,99707.16
2022-08-04T16:56:42.105Z,99713.69
2022-08-04T16:59:13.174Z,99705.16
2022-08-04T17:01:52.540Z,99707.44
2022-08-04T17:04:33.667Z,99717.91
2022-08-04T17:07:07.026Z,99710.13
2022-08-04T17:09:50.450Z,99709.19
2022-08-04T17:12:19.038Z,99709.00
2022-08-04T17:14:54.392Z,99706.53
2022-08-04T17:17:25.658Z,99712.00
2022-08-04T17:20:17.914Z,99713.69
2022-08-04T17:22:52.114Z,99713.84
2022-08-04T17:25:21.195Z,99716.16
2022-08-04T17:28:27.523Z,99710.50
2022-08-04T17:31:03.419Z,99713.59
2022-08-04T17:33:55.032Z,99718.22
2022-08-04T17:41:49.640Z,99722.47
2022-08-04T17:44:41.380Z,99721.41
2022-08-04T17:47:20.492Z,99717.00
2022-08-04T17:50:08.158Z,99723.50
2022-08-04T17:53:11.263Z,99726.16
2022-08-04T17:55:47.250Z,99716.53
2022-08-04T17:58:26.853Z,99714.09
2022-08-04T18:01:24.674Z,99714.50
2022-08-04T18:03:58.240Z,99717.91
2022-08-04T18:12:30.286Z,99718.00
2022-08-04T18:15:05.812Z,99723.75
2022-08-04T18:18:21.097Z,99719.56
2022-08-04T18:20:27.840Z,99726.28
2022-08-04T18:22:59.364Z,99730.75
2022-08-04T18:25:50.352Z,99725.28
2022-08-04T18:28:20.857Z,99733.03
2022-08-04T18:31:03.515Z,99730.28
2022-08-04T18:33:41.614Z,99731.97
2022-08-04T18:36:37.091Z,99740.13
2022-08-04T18:41:51.618Z,99750.31
2022-08-04T18:44:32.167Z,99755.72
2022-08-04T18:47:22.381Z,99752.31
2022-08-04T18:50:40.215Z,99758.97
2022-08-04T18:52:48.394Z,99754.25
2022-08-04T18:55:55.338Z,99757.09
2022-08-04T19:01:03.189Z,99771.00
2022-08-04T19:03:58.737Z,99766.91
2022-08-04T19:06:30.753Z,99771.41
2022-08-04T19:09:01.410Z,99772.41
2022-08-04T19:11:54.704Z,99768.75
2022-08-04T19:14:26.245Z,99771.38
2022-08-04T19:16:56.480Z,99776.56
2022-08-04T19:19:47.962Z,99773.31
2022-08-04T19:22:36.150Z,99770.09
2022-08-04T19:26:02.300Z,99772.56
2022-08-04T19:28:22.199Z,99781.88
2022-08-04T19:30:57.284Z,99780.16
2022-08-04T19:36:08.558Z,99786.00
2022-08-04T19:38:58.159Z,99787.16
2022-08-04T19:44:29.935Z,99798.25
2022-08-04T19:50:03.305Z,99792.84
2022-08-04T19:52:34.186Z,99799.38
2022-08-04T19:55:09.779Z,99795.63
2022-08-04T19:57:46.181Z,99792.03
2022-08-04T20:00:33.781Z,99800.91
2022-08-04T20:03:04.053Z,99798.53
2022-08-04T20:05:55.227Z,99802.28
2022-08-04T20:08:30.537Z,99800.81
2022-08-04T20:11:04.202Z,99801.19
2022-08-04T20:13:41.066Z,99797.31
2022-08-04T20:16:29.282Z,99804.19
2022-08-04T20:19:04.622Z,99804.72
2022-08-04T20:21:54.822Z,99806.81
2022-08-04T20:29:59.358Z,99810.59
2022-08-04T20:32:34.247Z,99812.97
2022-08-04T20:35:08.386Z,99816.03
2022-08-04T20:38:00.374Z,99817.91
2022-08-04T20:40:31.142Z,99821.78
2022-08-04T20:43:01.280Z,99820.47
2022-08-04T20:45:55.721Z,99819.78
2022-08-04T20:48:26.176Z,99828.09
2022-08-04T20:50:56.095Z,99830.44
2022-08-04T20:53:32.532Z,99830.28
2022-08-04T20:56:30.572Z,99830.47
2022-08-04T20:59:01.685Z,99832.00
2022-08-04T21:01:45.410Z,99830.12
2022-08-04T21:04:45.280Z,99827.09
2022-08-04T21:07:16.743Z,99826.06
2022-08-04T21:09:50.674Z,99829.59
2022-08-04T21:12:27.186Z,99835.69
2022-08-04T21:15:00.243Z,99830.94
2022-08-04T21:17:58.320Z,99838.72
2022-08-04T21:20:27.790Z,99837.69
2022-08-04T21:23:01.944Z,99840.72
2022-08-04T21:25:33.095Z,99842.91
2022-08-04T21:28:20.481Z,99844.06
2022-08-04T21:30:55.066Z,99840.63
2022-08-04T21:33:50.490Z,99838.59
2022-08-04T21:36:19.924Z,99845.03
2022-08-04T21:38:51.500Z,99845.03
2022-08-04T21:41:24.859Z,99851.28
2022-08-04T21:43:56.059Z,99846.38
2022-08-04T21:46:24.438Z,99851.63
2022-08-04T21:48:52.198Z,99853.28
2022-08-04T21:52:00.729Z,99857.84
2022-08-04T21:54:16.896Z,99855.34
2022-08-04T21:56:50.703Z,99863.97
2022-08-04T21:59:23.816Z,99862.25
2022-08-04T22:02:00.834Z,99858.75
2022-08-04T22:04:30.825Z,99854.97
2022-08-04T22:07:03.090Z,99864.69
2022-08-04T22:09:41.298Z,99868.03
2022-08-04T22:12:11.743Z,99869.91
2022-08-04T22:14:40.359Z,99876.41
2022-08-04T22:17:13.806Z,99871.06
2022-08-04T22:19:55.436Z,99874.47
2022-08-04T22:22:29.223Z,99876.94
2022-08-04T22:25:01.918Z,99882.34
2022-08-04T22:28:01.210Z,99879.81
2022-08-04T22:30:37.022Z,99879.34
2022-08-04T22:33:08.002Z,99878.87
2022-08-04T22:35:44.037Z,99874.09
2022-08-04T22:38:31.743Z,99884.56
2022-08-04T22:41:11.185Z,99880.00
2022-08-04T22:43:39.933Z,99882.47
2022-08-04T22:46:12.214Z,99880.00
2022-08-04T22:48:43.601Z,99879.78
2022-08-04T22:51:14.143Z,99880.25
2022-08-04T22:53:48.897Z,99883.34
2022-08-04T22:56:37.232Z,99883.62
2022-08-04T22:59:10.882Z,99877.09
2022-08-04T23:02:00.120Z,99871.59
2022-08-04T23:04:29.177Z,99874.69
2022-08-04T23:06:57.525Z,99874.62
2022-08-04T23:09:48.828Z,99870.25
2022-08-04T23:12:26.229Z,99873.69
2022-08-04T23:14:56.628Z,99873.84
2022-08-04T23:17:27.763Z,99870.09
2022-08-04T23:19:59.218Z,99869.75
2022-08-04T23:22:41.965Z,99869.22
2022-08-04T23:25:16.112Z,99867.84
2022-08-04T23:27:51.639Z,99861.44
2022-08-04T23:30:29.767Z,99860.91
2022-08-04T23:32:58.835Z,99868.84
2022-08-04T23:35:27.587Z,99867.41
2022-08-04T23:37:59.879Z,99867.03
2022-08-04T23:40:50.096Z,99869.38
2022-08-04T23:43:19.229Z,99863.41
2022-08-04T23:46:08.272Z,99869.88
2022-08-04T23:48:37.051Z,99868.75
2022-08-04T23:51:14.028Z,99863.59
2022-08-04T23:54:03.469Z,99867.31
2022-08-04T23:56:34.729Z,99864.16
2022-08-04T23:59:04.519Z,99866.28
